sensor_id;sensor_type;location;lat;lon;timestamp;P1;durP1;ratioP1;P2;durP2;ratioP2
51724;SDS011;37801;53.224;6.552;2023-11-19T00:00:33;26.10;;;15.93;;
51724;SDS011;37801;53.224;6.552;2023-11-19T00:03:00;25.38;;;16.13;;
51724;SDS011;37801;53.224;6.552;2023-11-19T00:05:27;27.30;;;17.00;;
51724;SDS011;37801;53.224;6.552;2023-11-19T00:07:53;27.50;;;16.83;;
51724;SDS011;37801;53.224;6.552;2023-11-19T00:10:20;30.20;;;17.98;;
51724;SDS011;37801;53.224;6.552;2023-11-19T00:12:47;29.42;;;16.85;;
51724;SDS011;37801;53.224;6.552;2023-11-19T00:15:13;25.58;;;14.90;;
51724;SDS011;37801;53.224;6.552;2023-11-19T00:17:43;27.48;;;15.27;;
51724;SDS011;37801;53.224;6.552;2023-11-19T00:20:13;24.00;;;13.95;;
51724;SDS011;37801;53.224;6.552;2023-11-19T00:22:40;28.17;;;14.43;;
51724;SDS011;37801;53.224;6.552;2023-11-19T00:25:07;26.70;;;14.23;;
51724;SDS011;37801;53.224;6.552;2023-11-19T00:27:33;25.75;;;14.05;;
51724;SDS011;37801;53.224;6.552;2023-11-19T00:29:59;25.95;;;12.70;;
51724;SDS011;37801;53.224;6.552;2023-11-19T00:32:25;23.48;;;12.43;;
51724;SDS011;37801;53.224;6.552;2023-11-19T00:34:52;24.80;;;12.05;;
51724;SDS011;37801;53.224;6.552;2023-11-19T00:37:18;26.80;;;12.18;;
51724;SDS011;37801;53.224;6.552;2023-11-19T00:39:44;20.35;;;10.68;;
51724;SDS011;37801;53.224;6.552;2023-11-19T00:42:11;28.25;;;10.00;;
51724;SDS011;37801;53.224;6.552;2023-11-19T00:44:37;20.70;;;9.35;;
51724;SDS011;37801;53.224;6.552;2023-11-19T00:47:03;20.30;;;7.68;;
51724;SDS011;37801;53.224;6.552;2023-11-19T00:49:30;17.00;;;7.10;;
51724;SDS011;37801;53.224;6.552;2023-11-19T00:51:58;24.20;;;7.30;;
51724;SDS011;37801;53.224;6.552;2023-11-19T00:54:24;17.02;;;6.63;;
51724;SDS011;37801;53.224;6.552;2023-11-19T00:56:53;20.60;;;6.32;;
51724;SDS011;37801;53.224;6.552;2023-11-19T00:59:20;21.92;;;5.57;;
51724;SDS011;37801;53.224;6.552;2023-11-19T01:01:46;24.65;;;5.85;;
51724;SDS011;37801;53.224;6.552;2023-11-19T01:04:18;20.42;;;5.75;;
51724;SDS011;37801;53.224;6.552;2023-11-19T01:06:44;22.42;;;5.80;;
51724;SDS011;37801;53.224;6.552;2023-11-19T01:09:10;29.70;;;5.88;;
51724;SDS011;37801;53.224;6.552;2023-11-19T01:11:36;21.58;;;5.68;;
51724;SDS011;37801;53.224;6.552;2023-11-19T01:14:02;19.77;;;5.05;;
51724;SDS011;37801;53.224;6.552;2023-11-19T01:16:29;21.08;;;5.03;;
51724;SDS011;37801;53.224;6.552;2023-11-19T01:18:55;24.02;;;6.00;;
51724;SDS011;37801;53.224;6.552;2023-11-19T01:21:22;24.52;;;5.82;;
51724;SDS011;37801;53.224;6.552;2023-11-19T01:23:48;24.55;;;5.20;;
51724;SDS011;37801;53.224;6.552;2023-11-19T01:26:14;25.60;;;5.28;;
51724;SDS011;37801;53.224;6.552;2023-11-19T01:28:40;22.75;;;5.15;;
51724;SDS011;37801;53.224;6.552;2023-11-19T01:31:12;20.98;;;5.95;;
51724;SDS011;37801;53.224;6.552;2023-11-19T01:33:40;22.30;;;5.07;;
51724;SDS011;37801;53.224;6.552;2023-11-19T01:36:07;18.08;;;4.88;;
51724;SDS011;37801;53.224;6.552;2023-11-19T01:38:33;18.98;;;4.65;;
51724;SDS011;37801;53.224;6.552;2023-11-19T01:40:59;29.95;;;5.47;;
51724;SDS011;37801;53.224;6.552;2023-11-19T01:43:37;22.67;;;5.05;;
51724;SDS011;37801;53.224;6.552;2023-11-19T01:46:06;21.52;;;4.60;;
51724;SDS011;37801;53.224;6.552;2023-11-19T01:48:34;22.52;;;4.70;;
51724;SDS011;37801;53.224;6.552;2023-11-19T01:51:01;21.08;;;5.05;;
51724;SDS011;37801;53.224;6.552;2023-11-19T01:53:28;22.40;;;5.38;;
51724;SDS011;37801;53.224;6.552;2023-11-19T01:55:55;27.40;;;5.15;;
51724;SDS011;37801;53.224;6.552;2023-11-19T01:58:21;20.13;;;4.72;;
51724;SDS011;37801;53.224;6.552;2023-11-19T02:00:48;22.45;;;4.95;;
51724;SDS011;37801;53.224;6.552;2023-11-19T02:03:14;20.15;;;4.57;;
51724;SDS011;37801;53.224;6.552;2023-11-19T02:05:41;18.58;;;4.50;;
51724;SDS011;37801;53.224;6.552;2023-11-19T02:08:07;17.90;;;4.57;;
51724;SDS011;37801;53.224;6.552;2023-11-19T02:10:33;22.33;;;4.88;;
51724;SDS011;37801;53.224;6.552;2023-11-19T02:12:59;22.42;;;4.60;;
51724;SDS011;37801;53.224;6.552;2023-11-19T02:15:26;18.20;;;4.32;;
51724;SDS011;37801;53.224;6.552;2023-11-19T02:17:53;26.10;;;4.75;;
51724;SDS011;37801;53.224;6.552;2023-11-19T02:20:19;22.15;;;4.80;;
51724;SDS011;37801;53.224;6.552;2023-11-19T02:22:46;23.15;;;5.22;;
51724;SDS011;37801;53.224;6.552;2023-11-19T02:25:46;22.08;;;4.85;;
51724;SDS011;37801;53.224;6.552;2023-11-19T02:28:05;22.02;;;4.90;;
51724;SDS011;37801;53.224;6.552;2023-11-19T02:30:31;26.95;;;5.45;;
51724;SDS011;37801;53.224;6.552;2023-11-19T02:32:58;21.63;;;4.90;;
51724;SDS011;37801;53.224;6.552;2023-11-19T02:35:26;26.48;;;5.80;;
51724;SDS011;37801;53.224;6.552;2023-11-19T02:37:54;34.28;;;6.15;;
51724;SDS011;37801;53.224;6.552;2023-11-19T02:40:20;25.45;;;5.53;;
51724;SDS011;37801;53.224;6.552;2023-11-19T02:42:47;22.90;;;5.60;;
51724;SDS011;37801;53.224;6.552;2023-11-19T02:45:13;25.92;;;4.70;;
51724;SDS011;37801;53.224;6.552;2023-11-19T02:47:40;26.48;;;5.18;;
51724;SDS011;37801;53.224;6.552;2023-11-19T02:50:08;20.90;;;4.85;;
51724;SDS011;37801;53.224;6.552;2023-11-19T02:52:42;26.48;;;4.82;;
51724;SDS011;37801;53.224;6.552;2023-11-19T02:55:12;28.70;;;5.80;;
51724;SDS011;37801;53.224;6.552;2023-11-19T02:57:39;25.05;;;4.63;;
51724;SDS011;37801;53.224;6.552;2023-11-19T03:00:12;28.88;;;5.55;;
51724;SDS011;37801;53.224;6.552;2023-11-19T03:02:39;26.33;;;5.20;;
51724;SDS011;37801;53.224;6.552;2023-11-19T03:05:10;23.70;;;5.30;;
51724;SDS011;37801;53.224;6.552;2023-11-19T03:07:37;25.52;;;5.45;;
51724;SDS011;37801;53.224;6.552;2023-11-19T03:10:03;23.27;;;4.95;;
51724;SDS011;37801;53.224;6.552;2023-11-19T03:12:32;30.52;;;5.05;;
51724;SDS011;37801;53.224;6.552;2023-11-19T03:14:58;33.25;;;5.68;;
51724;SDS011;37801;53.224;6.552;2023-11-19T03:17:27;24.02;;;4.38;;
51724;SDS011;37801;53.224;6.552;2023-11-19T03:19:56;21.85;;;4.82;;
51724;SDS011;37801;53.224;6.552;2023-11-19T03:22:22;23.25;;;4.63;;
51724;SDS011;37801;53.224;6.552;2023-11-19T03:24:50;27.02;;;4.85;;
51724;SDS011;37801;53.224;6.552;2023-11-19T03:27:16;27.83;;;5.50;;
51724;SDS011;37801;53.224;6.552;2023-11-19T03:29:46;30.17;;;5.05;;
51724;SDS011;37801;53.224;6.552;2023-11-19T03:32:31;25.90;;;5.07;;
51724;SDS011;37801;53.224;6.552;2023-11-19T03:34:57;26.88;;;5.65;;
51724;SDS011;37801;53.224;6.552;2023-11-19T03:37:24;25.88;;;5.28;;
51724;SDS011;37801;53.224;6.552;2023-11-19T03:39:50;25.08;;;4.85;;
51724;SDS011;37801;53.224;6.552;2023-11-19T03:42:18;33.08;;;6.20;;
51724;SDS011;37801;53.224;6.552;2023-11-19T03:44:45;28.00;;;5.10;;
51724;SDS011;37801;53.224;6.552;2023-11-19T03:47:11;30.23;;;5.40;;
51724;SDS011;37801;53.224;6.552;2023-11-19T03:49:38;22.98;;;5.03;;
51724;SDS011;37801;53.224;6.552;2023-11-19T03:52:04;22.15;;;4.70;;
51724;SDS011;37801;53.224;6.552;2023-11-19T03:54:30;25.83;;;5.50;;
51724;SDS011;37801;53.224;6.552;2023-11-19T03:56:57;33.15;;;6.43;;
51724;SDS011;37801;53.224;6.552;2023-11-19T03:59:25;29.33;;;5.65;;
51724;SDS011;37801;53.224;6.552;2023-11-19T04:01:51;23.85;;;5.38;;
51724;SDS011;37801;53.224;6.552;2023-11-19T04:04:18;26.38;;;5.32;;
51724;SDS011;37801;53.224;6.552;2023-11-19T04:06:44;24.20;;;5.68;;
51724;SDS011;37801;53.224;6.552;2023-11-19T04:09:11;23.27;;;4.63;;
51724;SDS011;37801;53.224;6.552;2023-11-19T04:11:37;28.08;;;5.20;;
51724;SDS011;37801;53.224;6.552;2023-11-19T04:14:03;27.70;;;5.78;;
51724;SDS011;37801;53.224;6.552;2023-11-19T04:16:29;31.65;;;5.80;;
51724;SDS011;37801;53.224;6.552;2023-11-19T04:18:55;30.73;;;5.65;;
51724;SDS011;37801;53.224;6.552;2023-11-19T04:21:21;27.23;;;5.45;;
51724;SDS011;37801;53.224;6.552;2023-11-19T04:23:48;29.17;;;5.60;;
51724;SDS011;37801;53.224;6.552;2023-11-19T04:26:15;27.45;;;5.35;;
51724;SDS011;37801;53.224;6.552;2023-11-19T04:28:41;30.83;;;5.50;;
51724;SDS011;37801;53.224;6.552;2023-11-19T04:31:07;26.52;;;5.30;;
51724;SDS011;37801;53.224;6.552;2023-11-19T04:33:34;32.00;;;5.70;;
51724;SDS011;37801;53.224;6.552;2023-11-19T04:36:00;37.75;;;6.88;;
51724;SDS011;37801;53.224;6.552;2023-11-19T04:38:27;30.67;;;5.22;;
51724;SDS011;37801;53.224;6.552;2023-11-19T04:40:54;36.30;;;6.30;;
51724;SDS011;37801;53.224;6.552;2023-11-19T04:43:28;30.05;;;6.05;;
51724;SDS011;37801;53.224;6.552;2023-11-19T04:45:56;36.58;;;6.47;;
51724;SDS011;37801;53.224;6.552;2023-11-19T04:48:23;31.95;;;5.82;;
51724;SDS011;37801;53.224;6.552;2023-11-19T04:50:49;36.30;;;6.47;;
51724;SDS011;37801;53.224;6.552;2023-11-19T04:53:19;36.72;;;6.28;;
51724;SDS011;37801;53.224;6.552;2023-11-19T04:55:45;35.22;;;6.03;;
51724;SDS011;37801;53.224;6.552;2023-11-19T04:58:12;29.48;;;5.63;;
51724;SDS011;37801;53.224;6.552;2023-11-19T05:00:38;36.80;;;6.93;;
51724;SDS011;37801;53.224;6.552;2023-11-19T05:03:04;36.75;;;7.53;;
51724;SDS011;37801;53.224;6.552;2023-11-19T05:05:34;32.90;;;5.72;;
51724;SDS011;37801;53.224;6.552;2023-11-19T05:08:00;34.90;;;6.20;;
51724;SDS011;37801;53.224;6.552;2023-11-19T05:10:26;47.40;;;7.50;;
51724;SDS011;37801;53.224;6.552;2023-11-19T05:12:52;39.97;;;7.22;;
51724;SDS011;37801;53.224;6.552;2023-11-19T05:15:21;42.20;;;7.00;;
51724;SDS011;37801;53.224;6.552;2023-11-19T05:17:47;43.97;;;7.75;;
51724;SDS011;37801;53.224;6.552;2023-11-19T05:20:13;41.10;;;7.00;;
51724;SDS011;37801;53.224;6.552;2023-11-19T05:22:40;40.55;;;7.32;;
51724;SDS011;37801;53.224;6.552;2023-11-19T05:25:07;36.80;;;7.50;;
51724;SDS011;37801;53.224;6.552;2023-11-19T05:27:34;40.50;;;6.95;;
51724;SDS011;37801;53.224;6.552;2023-11-19T05:30:01;37.60;;;6.65;;
51724;SDS011;37801;53.224;6.552;2023-11-19T05:32:27;51.70;;;8.25;;
51724;SDS011;37801;53.224;6.552;2023-11-19T05:34:53;42.65;;;8.13;;
51724;SDS011;37801;53.224;6.552;2023-11-19T05:37:19;41.33;;;6.70;;
51724;SDS011;37801;53.224;6.552;2023-11-19T05:39:45;49.78;;;7.35;;
51724;SDS011;37801;53.224;6.552;2023-11-19T05:42:11;43.83;;;6.82;;
51724;SDS011;37801;53.224;6.552;2023-11-19T05:44:37;53.95;;;8.15;;
51724;SDS011;37801;53.224;6.552;2023-11-19T05:47:03;37.55;;;7.38;;
51724;SDS011;37801;53.224;6.552;2023-11-19T05:49:30;36.75;;;6.93;;
51724;SDS011;37801;53.224;6.552;2023-11-19T05:51:56;41.67;;;6.80;;
51724;SDS011;37801;53.224;6.552;2023-11-19T05:54:22;46.90;;;7.80;;
51724;SDS011;37801;53.224;6.552;2023-11-19T05:56:48;47.53;;;7.90;;
51724;SDS011;37801;53.224;6.552;2023-11-19T05:59:15;40.88;;;7.25;;
51724;SDS011;37801;53.224;6.552;2023-11-19T06:01:43;34.97;;;6.13;;
51724;SDS011;37801;53.224;6.552;2023-11-19T06:04:09;40.35;;;7.72;;
51724;SDS011;37801;53.224;6.552;2023-11-19T06:06:36;39.45;;;7.43;;
51724;SDS011;37801;53.224;6.552;2023-11-19T06:09:02;33.92;;;7.45;;
51724;SDS011;37801;53.224;6.552;2023-11-19T06:11:29;43.78;;;6.93;;
51724;SDS011;37801;53.224;6.552;2023-11-19T06:13:55;39.85;;;8.10;;
51724;SDS011;37801;53.224;6.552;2023-11-19T06:16:22;35.72;;;6.93;;
51724;SDS011;37801;53.224;6.552;2023-11-19T06:18:48;42.20;;;7.25;;
51724;SDS011;37801;53.224;6.552;2023-11-19T06:21:15;38.92;;;7.15;;
51724;SDS011;37801;53.224;6.552;2023-11-19T06:23:41;39.65;;;6.88;;
51724;SDS011;37801;53.224;6.552;2023-11-19T06:26:07;43.13;;;7.30;;
51724;SDS011;37801;53.224;6.552;2023-11-19T06:28:34;37.85;;;7.00;;
51724;SDS011;37801;53.224;6.552;2023-11-19T06:31:01;39.15;;;7.07;;
51724;SDS011;37801;53.224;6.552;2023-11-19T06:33:27;44.83;;;7.35;;
51724;SDS011;37801;53.224;6.552;2023-11-19T06:35:53;39.58;;;6.57;;
51724;SDS011;37801;53.224;6.552;2023-11-19T06:38:20;43.67;;;7.43;;
51724;SDS011;37801;53.224;6.552;2023-11-19T06:40:46;39.85;;;7.47;;
51724;SDS011;37801;53.224;6.552;2023-11-19T06:43:12;42.90;;;7.35;;
51724;SDS011;37801;53.224;6.552;2023-11-19T06:45:38;39.22;;;7.05;;
51724;SDS011;37801;53.224;6.552;2023-11-19T06:48:05;42.20;;;7.18;;
51724;SDS011;37801;53.224;6.552;2023-11-19T06:50:31;44.35;;;7.72;;
51724;SDS011;37801;53.224;6.552;2023-11-19T06:52:57;41.33;;;6.85;;
51724;SDS011;37801;53.224;6.552;2023-11-19T06:55:24;41.33;;;7.13;;
51724;SDS011;37801;53.224;6.552;2023-11-19T06:57:50;40.45;;;6.35;;
51724;SDS011;37801;53.224;6.552;2023-11-19T07:00:16;40.20;;;6.70;;
51724;SDS011;37801;53.224;6.552;2023-11-19T07:02:43;31.55;;;6.97;;
51724;SDS011;37801;53.224;6.552;2023-11-19T07:05:09;35.85;;;6.32;;
51724;SDS011;37801;53.224;6.552;2023-11-19T07:07:37;38.03;;;6.53;;
51724;SDS011;37801;53.224;6.552;2023-11-19T07:10:03;40.63;;;6.53;;
51724;SDS011;37801;53.224;6.552;2023-11-19T07:12:30;35.45;;;6.38;;
51724;SDS011;37801;53.224;6.552;2023-11-19T07:14:57;42.13;;;7.13;;
51724;SDS011;37801;53.224;6.552;2023-11-19T07:17:23;29.75;;;5.93;;
51724;SDS011;37801;53.224;6.552;2023-11-19T07:19:49;36.50;;;7.43;;
51724;SDS011;37801;53.224;6.552;2023-11-19T07:22:16;38.67;;;6.60;;
51724;SDS011;37801;53.224;6.552;2023-11-19T07:24:42;44.58;;;7.78;;
51724;SDS011;37801;53.224;6.552;2023-11-19T07:27:08;42.63;;;7.35;;
51724;SDS011;37801;53.224;6.552;2023-11-19T07:29:35;34.35;;;6.57;;
51724;SDS011;37801;53.224;6.552;2023-11-19T07:32:01;41.30;;;6.75;;
51724;SDS011;37801;53.224;6.552;2023-11-19T07:34:27;31.83;;;5.32;;
51724;SDS011;37801;53.224;6.552;2023-11-19T07:36:54;40.15;;;6.90;;
51724;SDS011;37801;53.224;6.552;2023-11-19T07:39:24;40.50;;;7.38;;
51724;SDS011;37801;53.224;6.552;2023-11-19T07:41:50;32.17;;;6.07;;
51724;SDS011;37801;53.224;6.552;2023-11-19T07:44:16;40.40;;;6.68;;
51724;SDS011;37801;53.224;6.552;2023-11-19T07:46:42;43.45;;;7.13;;
51724;SDS011;37801;53.224;6.552;2023-11-19T07:49:10;43.92;;;6.45;;
51724;SDS011;37801;53.224;6.552;2023-11-19T07:51:36;36.20;;;6.82;;
51724;SDS011;37801;53.224;6.552;2023-11-19T07:54:02;36.67;;;6.22;;
51724;SDS011;37801;53.224;6.552;2023-11-19T07:56:29;30.02;;;6.60;;
51724;SDS011;37801;53.224;6.552;2023-11-19T07:58:55;49.65;;;7.93;;
51724;SDS011;37801;53.224;6.552;2023-11-19T08:01:21;36.08;;;5.80;;
51724;SDS011;37801;53.224;6.552;2023-11-19T08:03:48;30.33;;;5.72;;
51724;SDS011;37801;53.224;6.552;2023-11-19T08:06:14;33.75;;;5.68;;
51724;SDS011;37801;53.224;6.552;2023-11-19T08:08:41;45.63;;;6.05;;
51724;SDS011;37801;53.224;6.552;2023-11-19T08:11:08;35.20;;;6.80;;
51724;SDS011;37801;53.224;6.552;2023-11-19T08:13:34;45.08;;;7.15;;
51724;SDS011;37801;53.224;6.552;2023-11-19T08:16:00;37.30;;;6.28;;
51724;SDS011;37801;53.224;6.552;2023-11-19T08:18:26;39.47;;;7.80;;
51724;SDS011;37801;53.224;6.552;2023-11-19T08:20:52;40.00;;;6.97;;
51724;SDS011;37801;53.224;6.552;2023-11-19T08:23:19;38.92;;;6.30;;
51724;SDS011;37801;53.224;6.552;2023-11-19T08:25:46;45.65;;;6.82;;
51724;SDS011;37801;53.224;6.552;2023-11-19T08:28:12;43.35;;;7.15;;
51724;SDS011;37801;53.224;6.552;2023-11-19T08:30:38;38.63;;;7.28;;
51724;SDS011;37801;53.224;6.552;2023-11-19T08:33:04;31.33;;;5.82;;
51724;SDS011;37801;53.224;6.552;2023-11-19T08:35:32;41.42;;;7.82;;
51724;SDS011;37801;53.224;6.552;2023-11-19T08:37:58;39.95;;;8.02;;
51724;SDS011;37801;53.224;6.552;2023-11-19T08:40:24;40.50;;;7.20;;
51724;SDS011;37801;53.224;6.552;2023-11-19T08:42:55;39.30;;;6.63;;
51724;SDS011;37801;53.224;6.552;2023-11-19T08:45:21;34.83;;;6.45;;
51724;SDS011;37801;53.224;6.552;2023-11-19T08:47:47;38.92;;;7.35;;
51724;SDS011;37801;53.224;6.552;2023-11-19T08:50:13;44.17;;;7.55;;
51724;SDS011;37801;53.224;6.552;2023-11-19T08:52:39;51.05;;;7.05;;
51724;SDS011;37801;53.224;6.552;2023-11-19T08:55:06;41.70;;;6.35;;
51724;SDS011;37801;53.224;6.552;2023-11-19T08:57:32;42.78;;;7.72;;
51724;SDS011;37801;53.224;6.552;2023-11-19T08:59:58;40.42;;;7.00;;
51724;SDS011;37801;53.224;6.552;2023-11-19T09:02:24;40.50;;;7.10;;
51724;SDS011;37801;53.224;6.552;2023-11-19T09:04:50;36.70;;;7.45;;
51724;SDS011;37801;53.224;6.552;2023-11-19T09:07:16;35.63;;;7.43;;
51724;SDS011;37801;53.224;6.552;2023-11-19T09:09:43;39.38;;;7.55;;
51724;SDS011;37801;53.224;6.552;2023-11-19T09:12:09;39.72;;;6.60;;
51724;SDS011;37801;53.224;6.552;2023-11-19T09:14:39;28.88;;;6.28;;
51724;SDS011;37801;53.224;6.552;2023-11-19T09:17:05;35.38;;;6.38;;
51724;SDS011;37801;53.224;6.552;2023-11-19T09:19:32;36.65;;;6.97;;
51724;SDS011;37801;53.224;6.552;2023-11-19T09:21:59;30.83;;;5.93;;
51724;SDS011;37801;53.224;6.552;2023-11-19T09:24:25;41.88;;;7.20;;
51724;SDS011;37801;53.224;6.552;2023-11-19T09:26:52;33.45;;;6.05;;
51724;SDS011;37801;53.224;6.552;2023-11-19T09:29:20;35.22;;;6.93;;
51724;SDS011;37801;53.224;6.552;2023-11-19T09:31:46;43.80;;;6.75;;
51724;SDS011;37801;53.224;6.552;2023-11-19T09:34:13;40.22;;;6.72;;
51724;SDS011;37801;53.224;6.552;2023-11-19T09:36:39;32.55;;;6.28;;
51724;SDS011;37801;53.224;6.552;2023-11-19T09:39:09;39.45;;;6.80;;
51724;SDS011;37801;53.224;6.552;2023-11-19T09:41:35;32.38;;;5.72;;
51724;SDS011;37801;53.224;6.552;2023-11-19T09:44:01;35.55;;;6.63;;
51724;SDS011;37801;53.224;6.552;2023-11-19T09:46:27;33.60;;;6.47;;
51724;SDS011;37801;53.224;6.552;2023-11-19T09:48:54;34.15;;;6.10;;
51724;SDS011;37801;53.224;6.552;2023-11-19T09:51:21;40.40;;;7.80;;
51724;SDS011;37801;53.224;6.552;2023-11-19T09:53:47;34.13;;;6.13;;
51724;SDS011;37801;53.224;6.552;2023-11-19T09:56:14;42.65;;;6.40;;
51724;SDS011;37801;53.224;6.552;2023-11-19T09:58:44;40.22;;;6.10;;
51724;SDS011;37801;53.224;6.552;2023-11-19T10:01:10;45.33;;;7.13;;
51724;SDS011;37801;53.224;6.552;2023-11-19T10:03:37;34.28;;;6.53;;
51724;SDS011;37801;53.224;6.552;2023-11-19T10:06:07;33.38;;;5.43;;
51724;SDS011;37801;53.224;6.552;2023-11-19T10:08:34;35.03;;;5.78;;
51724;SDS011;37801;53.224;6.552;2023-11-19T10:11:00;39.85;;;6.28;;
51724;SDS011;37801;53.224;6.552;2023-11-19T10:13:26;39.92;;;6.68;;
51724;SDS011;37801;53.224;6.552;2023-11-19T10:15:52;33.05;;;6.05;;
51724;SDS011;37801;53.224;6.552;2023-11-19T10:18:23;36.67;;;6.35;;
51724;SDS011;37801;53.224;6.552;2023-11-19T10:20:49;32.50;;;6.28;;
51724;SDS011;37801;53.224;6.552;2023-11-19T10:23:15;38.72;;;6.38;;
51724;SDS011;37801;53.224;6.552;2023-11-19T10:25:41;38.55;;;5.95;;
51724;SDS011;37801;53.224;6.552;2023-11-19T10:28:07;39.42;;;6.95;;
51724;SDS011;37801;53.224;6.552;2023-11-19T10:30:34;31.10;;;7.25;;
51724;SDS011;37801;53.224;6.552;2023-11-19T10:33:07;38.35;;;6.15;;
51724;SDS011;37801;53.224;6.552;2023-11-19T10:35:34;30.20;;;5.90;;
51724;SDS011;37801;53.224;6.552;2023-11-19T10:38:13;38.85;;;7.22;;
51724;SDS011;37801;53.224;6.552;2023-11-19T10:40:40;34.75;;;5.90;;
51724;SDS011;37801;53.224;6.552;2023-11-19T10:43:06;37.92;;;6.95;;
51724;SDS011;37801;53.224;6.552;2023-11-19T10:45:33;35.88;;;5.80;;
51724;SDS011;37801;53.224;6.552;2023-11-19T10:47:59;24.75;;;4.93;;
51724;SDS011;37801;53.224;6.552;2023-11-19T10:50:26;31.90;;;5.50;;
51724;SDS011;37801;53.224;6.552;2023-11-19T10:52:56;39.08;;;6.13;;
51724;SDS011;37801;53.224;6.552;2023-11-19T10:55:29;37.75;;;6.82;;
51724;SDS011;37801;53.224;6.552;2023-11-19T10:57:59;32.95;;;6.03;;
51724;SDS011;37801;53.224;6.552;2023-11-19T11:00:26;31.63;;;5.68;;
51724;SDS011;37801;53.224;6.552;2023-11-19T11:02:54;30.08;;;5.38;;
51724;SDS011;37801;53.224;6.552;2023-11-19T11:05:21;34.55;;;6.57;;
51724;SDS011;37801;53.224;6.552;2023-11-19T11:07:47;52.63;;;8.18;;
51724;SDS011;37801;53.224;6.552;2023-11-19T11:10:16;32.88;;;6.03;;
51724;SDS011;37801;53.224;6.552;2023-11-19T11:12:42;34.72;;;6.72;;
51724;SDS011;37801;53.224;6.552;2023-11-19T11:15:10;30.90;;;6.18;;
51724;SDS011;37801;53.224;6.552;2023-11-19T11:17:40;36.70;;;6.57;;
51724;SDS011;37801;53.224;6.552;2023-11-19T11:20:07;38.75;;;6.45;;
51724;SDS011;37801;53.224;6.552;2023-11-19T11:22:44;37.50;;;6.60;;
51724;SDS011;37801;53.224;6.552;2023-11-19T11:27:58;43.60;;;6.43;;
51724;SDS011;37801;53.224;6.552;2023-11-19T11:33:32;27.27;;;5.53;;
51724;SDS011;37801;53.224;6.552;2023-11-19T11:36:19;32.90;;;5.97;;
51724;SDS011;37801;53.224;6.552;2023-11-19T11:38:47;30.23;;;5.97;;
51724;SDS011;37801;53.224;6.552;2023-11-19T11:41:17;43.30;;;6.78;;
51724;SDS011;37801;53.224;6.552;2023-11-19T11:48:56;32.33;;;6.43;;
51724;SDS011;37801;53.224;6.552;2023-11-19T11:54:25;31.10;;;6.18;;
51724;SDS011;37801;53.224;6.552;2023-11-19T11:57:02;42.97;;;6.28;;
51724;SDS011;37801;53.224;6.552;2023-11-19T12:00:11;27.58;;;5.43;;
51724;SDS011;37801;53.224;6.552;2023-11-19T12:02:21;33.88;;;6.43;;
51724;SDS011;37801;53.224;6.552;2023-11-19T12:04:49;30.05;;;6.63;;
51724;SDS011;37801;53.224;6.552;2023-11-19T12:07:17;38.28;;;6.55;;
51724;SDS011;37801;53.224;6.552;2023-11-19T12:09:47;27.35;;;5.57;;
51724;SDS011;37801;53.224;6.552;2023-11-19T12:17:36;34.15;;;5.97;;
51724;SDS011;37801;53.224;6.552;2023-11-19T12:20:07;33.38;;;6.53;;
51724;SDS011;37801;53.224;6.552;2023-11-19T12:22:37;28.85;;;6.35;;
51724;SDS011;37801;53.224;6.552;2023-11-19T12:25:04;26.52;;;6.13;;
51724;SDS011;37801;53.224;6.552;2023-11-19T12:27:31;32.75;;;6.03;;
51724;SDS011;37801;53.224;6.552;2023-11-19T12:29:59;41.30;;;7.65;;
51724;SDS011;37801;53.224;6.552;2023-11-19T12:32:25;38.85;;;6.25;;
51724;SDS011;37801;53.224;6.552;2023-11-19T12:34:51;26.45;;;5.20;;
51724;SDS011;37801;53.224;6.552;2023-11-19T12:37:17;37.05;;;6.03;;
51724;SDS011;37801;53.224;6.552;2023-11-19T12:39:44;26.17;;;5.30;;
51724;SDS011;37801;53.224;6.552;2023-11-19T12:42:10;38.38;;;6.43;;
51724;SDS011;37801;53.224;6.552;2023-11-19T12:44:37;30.10;;;5.00;;
51724;SDS011;37801;53.224;6.552;2023-11-19T12:47:04;43.25;;;6.10;;
51724;SDS011;37801;53.224;6.552;2023-11-19T12:49:36;32.65;;;5.97;;
51724;SDS011;37801;53.224;6.552;2023-11-19T12:52:10;41.60;;;6.50;;
51724;SDS011;37801;53.224;6.552;2023-11-19T12:54:37;34.67;;;5.63;;
51724;SDS011;37801;53.224;6.552;2023-11-19T12:57:04;32.63;;;5.60;;
51724;SDS011;37801;53.224;6.552;2023-11-19T12:59:30;25.02;;;4.95;;
51724;SDS011;37801;53.224;6.552;2023-11-19T13:01:57;27.75;;;5.10;;
51724;SDS011;37801;53.224;6.552;2023-11-19T13:04:27;26.70;;;5.43;;
51724;SDS011;37801;53.224;6.552;2023-11-19T13:06:53;29.40;;;6.05;;
51724;SDS011;37801;53.224;6.552;2023-11-19T13:09:23;26.70;;;5.68;;
51724;SDS011;37801;53.224;6.552;2023-11-19T13:11:49;25.77;;;5.63;;
51724;SDS011;37801;53.224;6.552;2023-11-19T13:14:16;34.63;;;6.80;;
51724;SDS011;37801;53.224;6.552;2023-11-19T13:16:42;30.88;;;5.88;;
51724;SDS011;37801;53.224;6.552;2023-11-19T13:19:10;25.13;;;5.18;;
51724;SDS011;37801;53.224;6.552;2023-11-19T13:21:37;29.55;;;4.97;;
51724;SDS011;37801;53.224;6.552;2023-11-19T13:24:04;31.00;;;5.38;;
51724;SDS011;37801;53.224;6.552;2023-11-19T13:26:31;25.58;;;5.45;;
51724;SDS011;37801;53.224;6.552;2023-11-19T13:28:57;29.58;;;5.85;;
51724;SDS011;37801;53.224;6.552;2023-11-19T13:31:23;34.88;;;7.70;;
51724;SDS011;37801;53.224;6.552;2023-11-19T13:33:49;28.98;;;6.53;;
51724;SDS011;37801;53.224;6.552;2023-11-19T13:36:15;30.65;;;6.75;;
51724;SDS011;37801;53.224;6.552;2023-11-19T13:38:41;33.88;;;6.55;;
51724;SDS011;37801;53.224;6.552;2023-11-19T13:41:09;47.28;;;7.93;;
51724;SDS011;37801;53.224;6.552;2023-11-19T13:43:36;33.60;;;6.00;;
51724;SDS011;37801;53.224;6.552;2023-11-19T13:46:03;26.50;;;5.75;;
51724;SDS011;37801;53.224;6.552;2023-11-19T13:48:29;26.90;;;5.80;;
51724;SDS011;37801;53.224;6.552;2023-11-19T13:50:55;31.63;;;6.15;;
51724;SDS011;37801;53.224;6.552;2023-11-19T13:53:22;26.77;;;5.57;;
51724;SDS011;37801;53.224;6.552;2023-11-19T13:55:51;27.83;;;5.43;;
51724;SDS011;37801;53.224;6.552;2023-11-19T13:58:18;30.95;;;6.18;;
51724;SDS011;37801;53.224;6.552;2023-11-19T14:00:44;37.83;;;5.85;;
51724;SDS011;37801;53.224;6.552;2023-11-19T14:03:10;37.65;;;5.97;;
51724;SDS011;37801;53.224;6.552;2023-11-19T14:05:37;23.88;;;5.10;;
51724;SDS011;37801;53.224;6.552;2023-11-19T14:08:03;26.13;;;4.80;;
51724;SDS011;37801;53.224;6.552;2023-11-19T14:10:36;30.67;;;5.65;;
51724;SDS011;37801;53.224;6.552;2023-11-19T14:13:04;30.95;;;5.40;;
51724;SDS011;37801;53.224;6.552;2023-11-19T14:15:30;35.92;;;5.95;;
51724;SDS011;37801;53.224;6.552;2023-11-19T14:17:56;33.83;;;5.40;;
51724;SDS011;37801;53.224;6.552;2023-11-19T14:20:23;32.47;;;5.20;;
51724;SDS011;37801;53.224;6.552;2023-11-19T14:22:49;26.17;;;4.88;;
51724;SDS011;37801;53.224;6.552;2023-11-19T14:25:16;29.50;;;6.05;;
51724;SDS011;37801;53.224;6.552;2023-11-19T14:27:43;32.88;;;4.97;;
51724;SDS011;37801;53.224;6.552;2023-11-19T14:30:11;42.63;;;7.03;;
51724;SDS011;37801;53.224;6.552;2023-11-19T14:32:42;30.60;;;6.03;;
51724;SDS011;37801;53.224;6.552;2023-11-19T14:35:12;27.85;;;4.85;;
51724;SDS011;37801;53.224;6.552;2023-11-19T14:37:39;33.58;;;6.15;;
51724;SDS011;37801;53.224;6.552;2023-11-19T14:40:05;28.25;;;5.60;;
51724;SDS011;37801;53.224;6.552;2023-11-19T14:42:34;28.08;;;6.20;;
51724;SDS011;37801;53.224;6.552;2023-11-19T14:45:00;31.30;;;6.07;;
51724;SDS011;37801;53.224;6.552;2023-11-19T14:47:26;23.95;;;5.30;;
51724;SDS011;37801;53.224;6.552;2023-11-19T14:49:54;31.13;;;5.63;;
51724;SDS011;37801;53.224;6.552;2023-11-19T14:52:20;25.90;;;5.20;;